Sea Malinhead, Ireland
Current Conditions -  °F | °C
As of 3:50 PM on Friday 19 Dec 2014 (Local Time) from EGAE Reporting Station
Rain Showers Rain Showers  
Wind Chill: 36°   Ceiling: 3500
Heat Index: 45°   Visibility: 6mi
Dew Point: 39°   Wind: 23mph
Humidity: 81%   Direction: 260°W
Pressure: 29.85"   Gusts: NA
Location:  55.5°N, 7.5°W
Report Text: EGAE 191450Z 26020KT 9999 -SHRA FEW023 BKN035 07/04 Q1011
Loading
Personal Weather Stations






























Interactive Weather Map New forecast layout! Learn more

10-Day Weather Forecast

Advertisements
Track Severe Weather on mobile